Eendracht — PDVN — position and weather

sailwx.info

Track history (hours):
 
Tides and Currents Weather Stations Pressure Air Temp Water Temp Dewpoint Dewpoint Depression Visibility Wind Speed Wind Dir Waves Ship Positions

Eendracht (Netherlands)

Last reported at 2019-Dec-12 07:23 UTC. Time now 2019-Dec-12 08:11 UTC.
Position N 28°08' W 015°25'.

Length 59 m; beam 12 m; draft 5 m.

Type: Sailing vessel. MMSI: 244543000.

Date/timePositionNaut miles runAvg speedWind from/ knotsBaromVisibWave heightAir tempDewpointWater temp
2019-Dec-12 07:23N 28°08' W 015°25'0 0.0
2019-Dec-12 05:59N 28°08' W 015°25'0 0.0
2019-Dec-12 04:29N 28°08' W 015°25'0 0.0
2019-Dec-12 01:59N 28°08' W 015°25'0 0.0
2019-Dec-12 01:20N 28°08' W 015°25'0 0.0
2019-Dec-12 00:23N 28°08' W 015°25'0 0.0
2019-Dec-11 23:56N 28°08' W 015°25'0 0.0
2019-Dec-11 22:23N 28°08' W 015°25'0 0.0
2019-Dec-11 20:59N 28°08' W 015°25'0 0.0
2019-Dec-11 19:26N 28°08' W 015°25'0 0.0
2019-Dec-11 10:59N 28°08' W 015°25'0 0.0
2019-Dec-11 08:59N 28°08' W 015°25'0 0.0
2019-Dec-11 07:29N 28°08' W 015°25'0 0.0
2019-Dec-11 05:59N 28°08' W 015°25'0 0.0
2019-Dec-11 04:29N 28°08' W 015°25'0 0.0
2019-Dec-11 03:29N 28°08' W 015°25'0 0.0
2019-Dec-11 02:59N 28°08' W 015°25'0 0.0
2019-Dec-10 22:53N 28°08' W 015°25'0 0.0
2019-Dec-10 21:53N 28°08' W 015°25'0 0.0
2019-Dec-10 20:29N 28°08' W 015°25'0 0.0
2019-Dec-10 18:28N 28°08' W 015°25'0 0.0
2019-Dec-10 16:28N 28°08' W 015°25'0 0.0
2019-Dec-10 14:25N 28°08' W 015°25'0 0.0
2019-Dec-10 12:58N 28°08' W 015°25'0 0.0
2019-Dec-10 12:28N 28°08' W 015°25'0 0.0
2019-Dec-10 11:28N 28°08' W 015°25'0 0.0
2019-Dec-10 10:28N 28°08' W 015°25'0 0.0
2019-Dec-10 09:28N 28°08' W 015°25'0 0.0
2019-Dec-10 08:58N 28°08' W 015°25'0 0.0
2019-Dec-10 06:28N 28°08' W 015°25'0 0.0
2019-Dec-10 04:28N 28°08' W 015°25'0 0.0
2019-Dec-10 03:25N 28°08' W 015°25'0 0.0
2019-Dec-10 02:58N 28°08' W 015°25'0 0.0
2019-Dec-10 01:58N 28°08' W 015°25'0 0.0
2019-Dec-09 21:52N 28°08' W 015°25'0 0.0
2019-Dec-09 20:58N 28°08' W 015°25'0 0.0
2019-Dec-09 20:22N 28°08' W 015°25'0 0.0
2019-Dec-09 19:52N 28°08' W 015°25'0 0.0
2019-Dec-09 17:55N 28°08' W 015°25'3 0.3
2019-Dec-09 07:00N 28°09' W 015°22'17 6.7
2019-Dec-09 04:30N 28°25' W 015°19'7 6.7
2019-Dec-09 03:30N 28°32' W 015°20'  
2019-Dec-03 11:31N 41°09' W 008°44'3 1.3
2019-Dec-03 09:29N 41°11' W 008°42'0 0.0
2019-Dec-03 08:59N 41°11' W 008°42'0 0.0
2019-Dec-03 08:29N 41°11' W 008°42'0 0.0
2019-Dec-03 07:29N 41°11' W 008°42'0 0.0
2019-Dec-03 06:29N 41°11' W 008°42'0 0.0
2019-Dec-03 05:29N 41°11' W 008°42'0 0.0
2019-Dec-03 04:29N 41°11' W 008°42'0 0.0
2019-Dec-03 03:59N 41°11' W 008°42'0 0.0
2019-Dec-03 03:29N 41°11' W 008°42'0 0.0
2019-Dec-03 00:29N 41°11' W 008°42'0 0.0
2019-Dec-02 22:59N 41°11' W 008°42'0 0.0
2019-Dec-02 22:29N 41°11' W 008°42'0 0.0
2019-Dec-02 21:29N 41°11' W 008°42'0 0.0
2019-Dec-02 19:29N 41°11' W 008°42'0 0.0
2019-Dec-02 18:59N 41°11' W 008°42'0 0.0
2019-Dec-02 18:29N 41°11' W 008°42'0 0.0
2019-Dec-02 17:29N 41°11' W 008°42'0 0.0
2019-Dec-02 16:59N 41°11' W 008°42'0 0.0
2019-Dec-02 15:59N 41°11' W 008°42'0 0.0
2019-Dec-02 12:59N 41°11' W 008°42'0 0.0
2019-Dec-02 11:29N 41°11' W 008°42'0 0.0
2019-Dec-02 08:29N 41°11' W 008°42'0 0.0
2019-Dec-02 07:29N 41°11' W 008°42'  
Track history (hours):
 
Tides and Currents Weather Stations Pressure Air Temp Water Temp Dewpoint Dewpoint Depression Visibility Wind Speed Wind Dir Waves Ship Positions

Eendracht (Netherlands)

Last reported at 2019-Dec-12 07:23 UTC. Time now 2019-Dec-12 08:11 UTC.
Position N 28°08' W 015°25'.

Length 59 m; beam 12 m; draft 5 m.

Type: Sailing vessel. MMSI: 244543000.

Date/timePositionNaut miles runAvg speedWind from/ knotsBaromVisibWave heightAir tempDewpointWater temp
2019-Dec-12 07:23N 28°08' W 015°25'0 0.0
2019-Dec-12 05:59N 28°08' W 015°25'0 0.0
2019-Dec-12 04:29N 28°08' W 015°25'0 0.0
2019-Dec-12 01:59N 28°08' W 015°25'0 0.0
2019-Dec-12 01:20N 28°08' W 015°25'0 0.0
2019-Dec-12 00:23N 28°08' W 015°25'0 0.0
2019-Dec-11 23:56N 28°08' W 015°25'0 0.0
2019-Dec-11 22:23N 28°08' W 015°25'0 0.0
2019-Dec-11 20:59N 28°08' W 015°25'0 0.0
2019-Dec-11 19:26N 28°08' W 015°25'0 0.0
2019-Dec-11 10:59N 28°08' W 015°25'0 0.0
2019-Dec-11 08:59N 28°08' W 015°25'0 0.0
2019-Dec-11 07:29N 28°08' W 015°25'0 0.0
2019-Dec-11 05:59N 28°08' W 015°25'0 0.0
2019-Dec-11 04:29N 28°08' W 015°25'0 0.0
2019-Dec-11 03:29N 28°08' W 015°25'0 0.0
2019-Dec-11 02:59N 28°08' W 015°25'0 0.0
2019-Dec-10 22:53N 28°08' W 015°25'0 0.0
2019-Dec-10 21:53N 28°08' W 015°25'0 0.0
2019-Dec-10 20:29N 28°08' W 015°25'0 0.0
2019-Dec-10 18:28N 28°08' W 015°25'0 0.0
2019-Dec-10 16:28N 28°08' W 015°25'0 0.0
2019-Dec-10 14:25N 28°08' W 015°25'0 0.0
2019-Dec-10 12:58N 28°08' W 015°25'0 0.0
2019-Dec-10 12:28N 28°08' W 015°25'0 0.0
2019-Dec-10 11:28N 28°08' W 015°25'0 0.0
2019-Dec-10 10:28N 28°08' W 015°25'0 0.0
2019-Dec-10 09:28N 28°08' W 015°25'0 0.0
2019-Dec-10 08:58N 28°08' W 015°25'0 0.0
2019-Dec-10 06:28N 28°08' W 015°25'0 0.0
2019-Dec-10 04:28N 28°08' W 015°25'0 0.0
2019-Dec-10 03:25N 28°08' W 015°25'0 0.0
2019-Dec-10 02:58N 28°08' W 015°25'0 0.0
2019-Dec-10 01:58N 28°08' W 015°25'0 0.0
2019-Dec-09 21:52N 28°08' W 015°25'0 0.0
2019-Dec-09 20:58N 28°08' W 015°25'0 0.0
2019-Dec-09 20:22N 28°08' W 015°25'0 0.0
2019-Dec-09 19:52N 28°08' W 015°25'0 0.0
2019-Dec-09 17:55N 28°08' W 015°25'3 0.3
2019-Dec-09 07:00N 28°09' W 015°22'17 6.7
2019-Dec-09 04:30N 28°25' W 015°19'7 6.7
2019-Dec-09 03:30N 28°32' W 015°20'  
2019-Dec-03 11:31N 41°09' W 008°44'3 1.3
2019-Dec-03 09:29N 41°11' W 008°42'0 0.0
2019-Dec-03 08:59N 41°11' W 008°42'0 0.0
2019-Dec-03 08:29N 41°11' W 008°42'0 0.0
2019-Dec-03 07:29N 41°11' W 008°42'0 0.0
2019-Dec-03 06:29N 41°11' W 008°42'0 0.0
2019-Dec-03 05:29N 41°11' W 008°42'0 0.0
2019-Dec-03 04:29N 41°11' W 008°42'0 0.0
2019-Dec-03 03:59N 41°11' W 008°42'0 0.0
2019-Dec-03 03:29N 41°11' W 008°42'0 0.0
2019-Dec-03 00:29N 41°11' W 008°42'0 0.0
2019-Dec-02 22:59N 41°11' W 008°42'0 0.0
2019-Dec-02 22:29N 41°11' W 008°42'0 0.0
2019-Dec-02 21:29N 41°11' W 008°42'0 0.0
2019-Dec-02 19:29N 41°11' W 008°42'0 0.0
2019-Dec-02 18:59N 41°11' W 008°42'0 0.0
2019-Dec-02 18:29N 41°11' W 008°42'0 0.0
2019-Dec-02 17:29N 41°11' W 008°42'0 0.0
2019-Dec-02 16:59N 41°11' W 008°42'0 0.0
2019-Dec-02 15:59N 41°11' W 008°42'0 0.0
2019-Dec-02 12:59N 41°11' W 008°42'0 0.0
2019-Dec-02 11:29N 41°11' W 008°42'0 0.0
2019-Dec-02 08:29N 41°11' W 008°42'0 0.0
2019-Dec-02 07:29N 41°11' W 008°42'  

Dump ship's entire track history